sensor_id;sensor_type;location;lat;lon;timestamp;P1;durP1;ratioP1;P2;durP2;ratioP2
994;SDS011;486;48.726;8.964;2022-08-19T02:49:55;27.90;;;24.90;;
994;SDS011;486;48.726;8.964;2022-08-19T02:52:24;28.53;;;24.43;;
994;SDS011;486;48.726;8.964;2022-08-19T02:54:53;28.30;;;25.27;;
994;SDS011;486;48.726;8.964;2022-08-19T02:57:23;29.70;;;25.80;;
994;SDS011;486;48.726;8.964;2022-08-19T02:59:52;29.53;;;26.53;;
994;SDS011;486;48.726;8.964;2022-08-19T03:02:22;29.67;;;24.73;;
994;SDS011;486;48.726;8.964;2022-08-19T03:04:55;28.27;;;24.60;;
994;SDS011;486;48.726;8.964;2022-08-19T03:07:24;28.67;;;25.57;;
994;SDS011;486;48.726;8.964;2022-08-19T03:09:53;29.27;;;24.60;;
994;SDS011;486;48.726;8.964;2022-08-19T03:12:22;29.20;;;24.93;;
994;SDS011;486;48.726;8.964;2022-08-19T03:14:51;31.70;;;28.37;;
994;SDS011;486;48.726;8.964;2022-08-19T03:17:20;27.87;;;25.07;;
994;SDS011;486;48.726;8.964;2022-08-19T03:19:49;27.27;;;24.37;;
994;SDS011;486;48.726;8.964;2022-08-19T03:22:20;31.93;;;28.60;;
994;SDS011;486;48.726;8.964;2022-08-19T03:24:50;32.13;;;28.70;;
994;SDS011;486;48.726;8.964;2022-08-19T03:27:19;30.53;;;26.20;;
994;SDS011;486;48.726;8.964;2022-08-19T03:29:48;30.20;;;27.00;;
994;SDS011;486;48.726;8.964;2022-08-19T03:32:17;31.00;;;27.80;;
994;SDS011;486;48.726;8.964;2022-08-19T03:34:47;30.83;;;27.50;;
994;SDS011;486;48.726;8.964;2022-08-19T03:37:17;31.80;;;28.57;;
994;SDS011;486;48.726;8.964;2022-08-19T03:39:48;30.87;;;26.77;;
994;SDS011;486;48.726;8.964;2022-08-19T03:42:17;30.40;;;27.17;;
994;SDS011;486;48.726;8.964;2022-08-19T03:44:46;31.43;;;28.10;;
994;SDS011;486;48.726;8.964;2022-08-19T03:47:16;32.80;;;28.77;;
994;SDS011;486;48.726;8.964;2022-08-19T03:49:45;32.53;;;28.23;;
994;SDS011;486;48.726;8.964;2022-08-19T03:52:14;34.90;;;31.10;;
994;SDS011;486;48.726;8.964;2022-08-19T03:54:45;34.63;;;28.60;;
994;SDS011;486;48.726;8.964;2022-08-19T03:57:14;32.63;;;28.77;;
994;SDS011;486;48.726;8.964;2022-08-19T03:59:43;33.97;;;30.27;;
994;SDS011;486;48.726;8.964;2022-08-19T04:02:12;36.33;;;30.20;;
994;SDS011;486;48.726;8.964;2022-08-19T04:04:43;33.10;;;29.73;;
994;SDS011;486;48.726;8.964;2022-08-19T04:07:13;36.33;;;29.67;;
994;SDS011;486;48.726;8.964;2022-08-19T04:09:49;33.27;;;29.77;;
994;SDS011;486;48.726;8.964;2022-08-19T04:12:18;34.60;;;28.50;;
994;SDS011;486;48.726;8.964;2022-08-19T04:14:47;39.67;;;32.70;;
994;SDS011;486;48.726;8.964;2022-08-19T04:17:16;51.90;;;42.00;;
994;SDS011;486;48.726;8.964;2022-08-19T04:19:45;33.80;;;29.50;;
994;SDS011;486;48.726;8.964;2022-08-19T04:22:14;31.30;;;27.90;;
994;SDS011;486;48.726;8.964;2022-08-19T04:24:43;33.27;;;28.43;;
994;SDS011;486;48.726;8.964;2022-08-19T04:27:15;33.60;;;29.67;;
994;SDS011;486;48.726;8.964;2022-08-19T04:29:44;31.73;;;28.23;;
994;SDS011;486;48.726;8.964;2022-08-19T04:32:13;35.90;;;29.90;;
994;SDS011;486;48.726;8.964;2022-08-19T04:34:42;34.53;;;29.00;;
994;SDS011;486;48.726;8.964;2022-08-19T04:37:11;32.30;;;27.70;;
994;SDS011;486;48.726;8.964;2022-08-19T04:39:40;33.50;;;29.87;;
994;SDS011;486;48.726;8.964;2022-08-19T04:42:27;34.33;;;30.60;;
994;SDS011;486;48.726;8.964;2022-08-19T04:45:09;36.10;;;30.30;;
994;SDS011;486;48.726;8.964;2022-08-19T04:47:40;34.17;;;30.57;;
994;SDS011;486;48.726;8.964;2022-08-19T04:50:11;35.17;;;31.47;;
994;SDS011;486;48.726;8.964;2022-08-19T04:52:43;37.27;;;30.60;;
994;SDS011;486;48.726;8.964;2022-08-19T04:55:12;33.83;;;30.13;;
994;SDS011;486;48.726;8.964;2022-08-19T04:57:45;36.00;;;31.77;;
994;SDS011;486;48.726;8.964;2022-08-19T05:00:16;33.87;;;30.30;;
994;SDS011;486;48.726;8.964;2022-08-19T05:02:45;34.53;;;30.93;;
994;SDS011;486;48.726;8.964;2022-08-19T05:05:14;35.73;;;29.20;;
994;SDS011;486;48.726;8.964;2022-08-19T05:07:45;35.60;;;31.77;;
994;SDS011;486;48.726;8.964;2022-08-19T05:10:14;38.23;;;32.40;;
994;SDS011;486;48.726;8.964;2022-08-19T05:12:45;37.90;;;32.03;;
994;SDS011;486;48.726;8.964;2022-08-19T05:15:14;32.90;;;28.83;;
994;SDS011;486;48.726;8.964;2022-08-19T05:17:44;36.30;;;30.27;;
994;SDS011;486;48.726;8.964;2022-08-19T05:20:32;38.07;;;31.40;;
994;SDS011;486;48.726;8.964;2022-08-19T05:23:14;34.90;;;31.03;;
994;SDS011;486;48.726;8.964;2022-08-19T05:25:43;33.60;;;29.00;;
994;SDS011;486;48.726;8.964;2022-08-19T05:28:15;33.00;;;29.17;;
994;SDS011;486;48.726;8.964;2022-08-19T05:30:44;33.50;;;29.97;;
994;SDS011;486;48.726;8.964;2022-08-19T05:33:13;33.03;;;28.20;;
994;SDS011;486;48.726;8.964;2022-08-19T05:35:42;33.50;;;29.80;;
994;SDS011;486;48.726;8.964;2022-08-19T05:38:14;34.90;;;30.50;;
994;SDS011;486;48.726;8.964;2022-08-19T05:40:44;32.53;;;28.93;;
994;SDS011;486;48.726;8.964;2022-08-19T05:43:17;35.47;;;30.80;;
994;SDS011;486;48.726;8.964;2022-08-19T05:45:46;34.47;;;29.53;;
994;SDS011;486;48.726;8.964;2022-08-19T05:48:15;33.40;;;30.00;;
994;SDS011;486;48.726;8.964;2022-08-19T05:50:45;35.53;;;30.40;;
994;SDS011;486;48.726;8.964;2022-08-19T05:53:15;33.13;;;29.67;;
994;SDS011;486;48.726;8.964;2022-08-19T05:55:44;35.10;;;28.57;;
994;SDS011;486;48.726;8.964;2022-08-19T05:58:13;33.57;;;29.70;;
994;SDS011;486;48.726;8.964;2022-08-19T06:00:45;38.73;;;31.63;;
994;SDS011;486;48.726;8.964;2022-08-19T06:03:14;35.20;;;29.40;;
994;SDS011;486;48.726;8.964;2022-08-19T06:05:43;33.87;;;30.00;;
994;SDS011;486;48.726;8.964;2022-08-19T06:08:12;33.30;;;29.63;;
994;SDS011;486;48.726;8.964;2022-08-19T06:10:43;31.87;;;28.37;;
994;SDS011;486;48.726;8.964;2022-08-19T06:13:12;34.27;;;30.67;;
994;SDS011;486;48.726;8.964;2022-08-19T06:15:45;33.07;;;29.50;;
994;SDS011;486;48.726;8.964;2022-08-19T06:18:14;31.40;;;27.93;;
994;SDS011;486;48.726;8.964;2022-08-19T06:20:44;34.87;;;31.07;;
994;SDS011;486;48.726;8.964;2022-08-19T06:23:14;33.93;;;30.33;;
994;SDS011;486;48.726;8.964;2022-08-19T06:25:45;32.57;;;29.07;;
994;SDS011;486;48.726;8.964;2022-08-19T06:28:14;34.60;;;29.47;;
994;SDS011;486;48.726;8.964;2022-08-19T06:30:45;34.77;;;31.20;;
994;SDS011;486;48.726;8.964;2022-08-19T06:33:15;31.77;;;28.40;;
994;SDS011;486;48.726;8.964;2022-08-19T06:35:44;36.13;;;30.13;;
994;SDS011;486;48.726;8.964;2022-08-19T06:38:13;31.10;;;27.63;;
994;SDS011;486;48.726;8.964;2022-08-19T06:40:42;32.63;;;27.53;;
994;SDS011;486;48.726;8.964;2022-08-19T06:43:11;30.80;;;27.50;;
994;SDS011;486;48.726;8.964;2022-08-19T06:45:41;31.30;;;28.00;;
994;SDS011;486;48.726;8.964;2022-08-19T06:48:12;31.17;;;27.00;;
994;SDS011;486;48.726;8.964;2022-08-19T06:50:41;29.37;;;26.27;;
994;SDS011;486;48.726;8.964;2022-08-19T06:53:10;31.10;;;27.57;;
994;SDS011;486;48.726;8.964;2022-08-19T06:55:40;30.50;;;27.23;;
994;SDS011;486;48.726;8.964;2022-08-19T06:58:09;28.30;;;25.50;;
994;SDS011;486;48.726;8.964;2022-08-19T07:00:39;29.47;;;26.30;;
994;SDS011;486;48.726;8.964;2022-08-19T07:03:08;30.80;;;27.23;;
994;SDS011;486;48.726;8.964;2022-08-19T07:05:41;31.77;;;28.33;;
994;SDS011;486;48.726;8.964;2022-08-19T07:08:10;29.13;;;26.27;;
994;SDS011;486;48.726;8.964;2022-08-19T07:10:42;30.87;;;26.87;;
994;SDS011;486;48.726;8.964;2022-08-19T07:13:13;28.67;;;25.67;;
994;SDS011;486;48.726;8.964;2022-08-19T07:15:42;27.50;;;24.60;;
994;SDS011;486;48.726;8.964;2022-08-19T07:18:11;29.23;;;26.40;;
994;SDS011;486;48.726;8.964;2022-08-19T07:20:43;27.73;;;24.77;;
994;SDS011;486;48.726;8.964;2022-08-19T07:23:12;30.07;;;27.07;;
994;SDS011;486;48.726;8.964;2022-08-19T07:25:42;28.40;;;25.07;;
994;SDS011;486;48.726;8.964;2022-08-19T07:28:11;26.33;;;23.63;;
994;SDS011;486;48.726;8.964;2022-08-19T07:30:40;29.50;;;26.40;;
994;SDS011;486;48.726;8.964;2022-08-19T07:33:09;28.80;;;25.70;;
994;SDS011;486;48.726;8.964;2022-08-19T07:35:38;28.40;;;25.47;;
994;SDS011;486;48.726;8.964;2022-08-19T07:38:11;27.23;;;24.30;;
994;SDS011;486;48.726;8.964;2022-08-19T07:40:40;29.83;;;26.70;;
994;SDS011;486;48.726;8.964;2022-08-19T07:43:11;27.90;;;24.90;;
994;SDS011;486;48.726;8.964;2022-08-19T07:45:40;27.13;;;24.33;;
994;SDS011;486;48.726;8.964;2022-08-19T07:48:09;27.40;;;24.53;;
994;SDS011;486;48.726;8.964;2022-08-19T07:50:39;27.83;;;24.90;;
994;SDS011;486;48.726;8.964;2022-08-19T07:53:11;28.27;;;25.20;;
994;SDS011;486;48.726;8.964;2022-08-19T07:55:40;26.90;;;24.00;;
994;SDS011;486;48.726;8.964;2022-08-19T07:58:11;25.60;;;22.97;;
994;SDS011;486;48.726;8.964;2022-08-19T08:00:42;25.87;;;23.13;;
994;SDS011;486;48.726;8.964;2022-08-19T08:03:14;24.03;;;21.53;;
994;SDS011;486;48.726;8.964;2022-08-19T08:05:45;25.83;;;23.13;;
994;SDS011;486;48.726;8.964;2022-08-19T08:08:29;27.77;;;23.50;;
994;SDS011;486;48.726;8.964;2022-08-19T08:11:11;25.23;;;22.53;;
994;SDS011;486;48.726;8.964;2022-08-19T08:13:42;25.10;;;22.73;;
994;SDS011;486;48.726;8.964;2022-08-19T08:16:11;24.40;;;22.10;;
994;SDS011;486;48.726;8.964;2022-08-19T08:18:40;25.90;;;22.43;;
994;SDS011;486;48.726;8.964;2022-08-19T08:21:11;25.77;;;22.57;;
994;SDS011;486;48.726;8.964;2022-08-19T08:23:42;24.33;;;21.90;;
994;SDS011;486;48.726;8.964;2022-08-19T08:26:11;24.30;;;21.87;;
994;SDS011;486;48.726;8.964;2022-08-19T08:28:41;26.23;;;23.57;;
994;SDS011;486;48.726;8.964;2022-08-19T08:31:11;25.97;;;23.00;;
994;SDS011;486;48.726;8.964;2022-08-19T08:33:40;23.97;;;21.60;;
994;SDS011;486;48.726;8.964;2022-08-19T08:36:09;22.70;;;20.50;;
994;SDS011;486;48.726;8.964;2022-08-19T08:38:40;23.83;;;21.47;;
994;SDS011;486;48.726;8.964;2022-08-19T08:41:16;24.60;;;22.13;;
994;SDS011;486;48.726;8.964;2022-08-19T08:43:53;24.77;;;22.20;;
994;SDS011;486;48.726;8.964;2022-08-19T08:46:25;27.87;;;25.00;;
994;SDS011;486;48.726;8.964;2022-08-19T08:49:04;26.00;;;23.60;;
994;SDS011;486;48.726;8.964;2022-08-19T08:51:48;24.80;;;22.20;;
994;SDS011;486;48.726;8.964;2022-08-19T08:54:36;24.10;;;21.50;;
994;SDS011;486;48.726;8.964;2022-08-19T08:57:12;25.40;;;22.70;;
994;SDS011;486;48.726;8.964;2022-08-19T08:59:47;23.37;;;21.17;;
994;SDS011;486;48.726;8.964;2022-08-19T09:02:18;24.07;;;21.53;;
994;SDS011;486;48.726;8.964;2022-08-19T09:04:48;24.50;;;21.83;;
994;SDS011;486;48.726;8.964;2022-08-19T09:07:20;23.10;;;20.90;;
994;SDS011;486;48.726;8.964;2022-08-19T09:10:06;22.53;;;19.97;;
994;SDS011;486;48.726;8.964;2022-08-19T09:12:45;24.67;;;22.30;;
994;SDS011;486;48.726;8.964;2022-08-19T09:15:33;24.47;;;21.97;;
994;SDS011;486;48.726;8.964;2022-08-19T09:18:09;23.37;;;20.83;;
994;SDS011;486;48.726;8.964;2022-08-19T09:20:39;25.10;;;22.50;;
994;SDS011;486;48.726;8.964;2022-08-19T09:23:08;24.83;;;22.33;;
994;SDS011;486;48.726;8.964;2022-08-19T09:25:41;23.70;;;21.53;;
994;SDS011;486;48.726;8.964;2022-08-19T09:28:09;23.97;;;21.67;;
994;SDS011;486;48.726;8.964;2022-08-19T09:30:39;24.33;;;22.07;;
994;SDS011;486;48.726;8.964;2022-08-19T09:33:09;24.87;;;22.47;;
994;SDS011;486;48.726;8.964;2022-08-19T09:35:38;24.23;;;21.87;;
994;SDS011;486;48.726;8.964;2022-08-19T09:38:07;22.90;;;20.57;;
994;SDS011;486;48.726;8.964;2022-08-19T09:40:36;24.67;;;22.30;;
994;SDS011;486;48.726;8.964;2022-08-19T09:43:08;23.20;;;21.13;;
994;SDS011;486;48.726;8.964;2022-08-19T09:45:37;25.53;;;23.03;;
994;SDS011;486;48.726;8.964;2022-08-19T09:48:06;22.07;;;20.00;;
994;SDS011;486;48.726;8.964;2022-08-19T09:50:35;24.77;;;22.27;;
994;SDS011;486;48.726;8.964;2022-08-19T09:53:04;25.43;;;22.93;;
994;SDS011;486;48.726;8.964;2022-08-19T09:55:33;23.57;;;21.37;;
994;SDS011;486;48.726;8.964;2022-08-19T09:58:02;23.73;;;21.53;;
994;SDS011;486;48.726;8.964;2022-08-19T10:00:34;22.43;;;20.37;;
994;SDS011;486;48.726;8.964;2022-08-19T10:03:06;21.57;;;19.40;;
994;SDS011;486;48.726;8.964;2022-08-19T10:05:36;21.57;;;19.57;;
994;SDS011;486;48.726;8.964;2022-08-19T10:08:18;21.60;;;19.50;;
994;SDS011;486;48.726;8.964;2022-08-19T10:10:50;20.07;;;18.13;;
994;SDS011;486;48.726;8.964;2022-08-19T10:13:21;21.83;;;19.93;;
994;SDS011;486;48.726;8.964;2022-08-19T10:15:55;19.53;;;17.80;;
994;SDS011;486;48.726;8.964;2022-08-19T10:18:32;21.13;;;19.20;;
994;SDS011;486;48.726;8.964;2022-08-19T10:21:04;19.17;;;16.90;;
994;SDS011;486;48.726;8.964;2022-08-19T10:23:36;19.43;;;17.73;;
994;SDS011;486;48.726;8.964;2022-08-19T10:26:11;17.50;;;16.00;;
994;SDS011;486;48.726;8.964;2022-08-19T10:28:42;18.40;;;16.60;;
994;SDS011;486;48.726;8.964;2022-08-19T10:31:14;16.93;;;15.27;;
994;SDS011;486;48.726;8.964;2022-08-19T10:33:46;18.23;;;16.43;;
994;SDS011;486;48.726;8.964;2022-08-19T10:36:16;17.27;;;15.77;;
994;SDS011;486;48.726;8.964;2022-08-19T10:38:49;17.07;;;15.27;;
994;SDS011;486;48.726;8.964;2022-08-19T10:41:22;15.27;;;13.87;;
994;SDS011;486;48.726;8.964;2022-08-19T10:43:54;15.57;;;14.17;;
994;SDS011;486;48.726;8.964;2022-08-19T10:46:28;15.30;;;14.07;;
994;SDS011;486;48.726;8.964;2022-08-19T10:48:58;15.83;;;14.37;;
994;SDS011;486;48.726;8.964;2022-08-19T10:51:29;16.40;;;14.90;;
994;SDS011;486;48.726;8.964;2022-08-19T10:54:10;14.83;;;13.53;;
994;SDS011;486;48.726;8.964;2022-08-19T10:56:40;16.53;;;15.03;;
994;SDS011;486;48.726;8.964;2022-08-19T10:59:18;16.50;;;14.83;;
994;SDS011;486;48.726;8.964;2022-08-19T11:01:54;17.93;;;16.30;;
994;SDS011;486;48.726;8.964;2022-08-19T11:04:28;17.33;;;15.73;;
994;SDS011;486;48.726;8.964;2022-08-19T11:06:58;17.37;;;15.83;;
994;SDS011;486;48.726;8.964;2022-08-19T11:09:28;17.53;;;15.90;;
994;SDS011;486;48.726;8.964;2022-08-19T11:11:57;18.13;;;16.63;;
994;SDS011;486;48.726;8.964;2022-08-19T11:14:26;16.13;;;14.60;;
994;SDS011;486;48.726;8.964;2022-08-19T11:16:58;16.00;;;14.50;;
994;SDS011;486;48.726;8.964;2022-08-19T11:19:27;16.00;;;14.60;;
994;SDS011;486;48.726;8.964;2022-08-19T11:21:56;15.53;;;14.17;;
994;SDS011;486;48.726;8.964;2022-08-19T11:24:27;15.53;;;14.23;;
994;SDS011;486;48.726;8.964;2022-08-19T11:27:00;15.13;;;14.00;;
994;SDS011;486;48.726;8.964;2022-08-19T11:29:34;14.60;;;13.20;;
994;SDS011;486;48.726;8.964;2022-08-19T11:32:09;14.03;;;12.93;;
994;SDS011;486;48.726;8.964;2022-08-19T11:34:40;13.37;;;12.37;;
994;SDS011;486;48.726;8.964;2022-08-19T11:37:09;15.20;;;13.80;;
994;SDS011;486;48.726;8.964;2022-08-19T11:39:38;15.47;;;14.17;;
994;SDS011;486;48.726;8.964;2022-08-19T11:42:07;14.63;;;13.40;;
994;SDS011;486;48.726;8.964;2022-08-19T11:44:48;13.60;;;12.60;;
994;SDS011;486;48.726;8.964;2022-08-19T11:47:20;14.57;;;13.47;;
994;SDS011;486;48.726;8.964;2022-08-19T11:49:49;13.40;;;12.10;;
994;SDS011;486;48.726;8.964;2022-08-19T11:52:18;12.90;;;11.80;;
994;SDS011;486;48.726;8.964;2022-08-19T11:54:47;13.80;;;12.60;;
994;SDS011;486;48.726;8.964;2022-08-19T11:57:16;14.23;;;13.07;;
994;SDS011;486;48.726;8.964;2022-08-19T11:59:49;12.93;;;11.80;;
994;SDS011;486;48.726;8.964;2022-08-19T12:02:23;11.63;;;10.80;;
994;SDS011;486;48.726;8.964;2022-08-19T12:04:52;12.10;;;11.00;;
994;SDS011;486;48.726;8.964;2022-08-19T12:07:21;13.03;;;12.03;;
994;SDS011;486;48.726;8.964;2022-08-19T12:09:50;11.90;;;10.83;;
994;SDS011;486;48.726;8.964;2022-08-19T12:12:19;13.70;;;12.67;;
994;SDS011;486;48.726;8.964;2022-08-19T12:14:49;12.17;;;11.27;;
994;SDS011;486;48.726;8.964;2022-08-19T12:17:24;12.60;;;10.93;;
994;SDS011;486;48.726;8.964;2022-08-19T12:19:55;12.27;;;11.27;;
994;SDS011;486;48.726;8.964;2022-08-19T12:22:24;11.50;;;10.50;;
994;SDS011;486;48.726;8.964;2022-08-19T12:24:54;11.03;;;10.07;;
994;SDS011;486;48.726;8.964;2022-08-19T12:27:23;12.53;;;11.23;;
994;SDS011;486;48.726;8.964;2022-08-19T12:29:52;10.17;;;9.43;;
994;SDS011;486;48.726;8.964;2022-08-19T12:32:24;10.57;;;9.77;;
994;SDS011;486;48.726;8.964;2022-08-19T12:34:53;11.70;;;11.00;;
994;SDS011;486;48.726;8.964;2022-08-19T12:37:23;12.40;;;11.50;;
994;SDS011;486;48.726;8.964;2022-08-19T12:39:52;12.30;;;11.40;;
994;SDS011;486;48.726;8.964;2022-08-19T12:42:22;13.27;;;12.37;;
994;SDS011;486;48.726;8.964;2022-08-19T12:44:51;13.07;;;11.87;;
994;SDS011;486;48.726;8.964;2022-08-19T12:47:20;12.43;;;11.43;;
994;SDS011;486;48.726;8.964;2022-08-19T12:49:51;11.67;;;10.87;;
994;SDS011;486;48.726;8.964;2022-08-19T12:52:21;12.80;;;11.80;;
994;SDS011;486;48.726;8.964;2022-08-19T12:54:52;12.40;;;11.53;;
994;SDS011;486;48.726;8.964;2022-08-19T12:57:24;13.17;;;12.17;;
994;SDS011;486;48.726;8.964;2022-08-19T12:59:58;14.40;;;13.10;;
994;SDS011;486;48.726;8.964;2022-08-19T13:02:30;12.50;;;11.40;;
994;SDS011;486;48.726;8.964;2022-08-19T13:05:02;13.70;;;12.80;;
994;SDS011;486;48.726;8.964;2022-08-19T13:07:33;12.07;;;11.07;;
994;SDS011;486;48.726;8.964;2022-08-19T13:10:04;12.70;;;11.80;;
994;SDS011;486;48.726;8.964;2022-08-19T13:12:35;11.20;;;10.50;;
994;SDS011;486;48.726;8.964;2022-08-19T13:15:06;13.47;;;12.47;;
994;SDS011;486;48.726;8.964;2022-08-19T13:17:37;11.57;;;10.73;;
994;SDS011;486;48.726;8.964;2022-08-19T13:20:10;12.17;;;11.23;;
994;SDS011;486;48.726;8.964;2022-08-19T13:22:40;12.70;;;11.80;;
994;SDS011;486;48.726;8.964;2022-08-19T13:25:10;12.83;;;12.03;;
994;SDS011;486;48.726;8.964;2022-08-19T13:27:41;11.33;;;10.57;;
994;SDS011;486;48.726;8.964;2022-08-19T13:30:11;12.00;;;11.23;;
994;SDS011;486;48.726;8.964;2022-08-19T13:32:55;10.97;;;10.27;;
994;SDS011;486;48.726;8.964;2022-08-19T13:35:43;12.70;;;11.80;;
994;SDS011;486;48.726;8.964;2022-08-19T13:38:16;13.97;;;13.07;;
994;SDS011;486;48.726;8.964;2022-08-19T13:40:48;15.73;;;14.43;;
994;SDS011;486;48.726;8.964;2022-08-19T13:43:19;16.00;;;14.90;;
994;SDS011;486;48.726;8.964;2022-08-19T13:45:50;17.20;;;15.60;;
994;SDS011;486;48.726;8.964;2022-08-19T13:48:21;15.33;;;14.23;;
994;SDS011;486;48.726;8.964;2022-08-19T13:50:54;14.73;;;13.83;;
994;SDS011;486;48.726;8.964;2022-08-19T13:53:23;15.67;;;14.57;;
994;SDS011;486;48.726;8.964;2022-08-19T13:55:52;15.17;;;13.93;;
994;SDS011;486;48.726;8.964;2022-08-19T13:58:22;14.73;;;13.73;;
994;SDS011;486;48.726;8.964;2022-08-19T14:00:51;15.30;;;14.10;;
994;SDS011;486;48.726;8.964;2022-08-19T14:03:20;14.77;;;13.67;;
994;SDS011;486;48.726;8.964;2022-08-19T14:05:49;14.00;;;13.10;;
994;SDS011;486;48.726;8.964;2022-08-19T14:08:21;14.77;;;13.77;;
994;SDS011;486;48.726;8.964;2022-08-19T14:10:50;15.93;;;14.70;;
994;SDS011;486;48.726;8.964;2022-08-19T14:13:20;13.87;;;12.97;;
994;SDS011;486;48.726;8.964;2022-08-19T14:15:50;14.17;;;13.27;;
994;SDS011;486;48.726;8.964;2022-08-19T14:18:20;15.47;;;14.37;;
994;SDS011;486;48.726;8.964;2022-08-19T14:20:50;15.33;;;14.13;;
994;SDS011;486;48.726;8.964;2022-08-19T14:23:22;15.17;;;14.13;;
994;SDS011;486;48.726;8.964;2022-08-19T14:25:51;15.33;;;14.23;;
994;SDS011;486;48.726;8.964;2022-08-19T14:28:21;14.33;;;13.40;;
994;SDS011;486;48.726;8.964;2022-08-19T14:30:50;14.37;;;13.33;;
994;SDS011;486;48.726;8.964;2022-08-19T14:33:19;15.67;;;14.57;;
994;SDS011;486;48.726;8.964;2022-08-19T14:35:48;14.90;;;13.80;;
994;SDS011;486;48.726;8.964;2022-08-19T14:38:18;14.87;;;13.70;;
994;SDS011;486;48.726;8.964;2022-08-19T14:40:49;14.47;;;13.50;;
994;SDS011;486;48.726;8.964;2022-08-19T14:43:19;15.07;;;13.97;;
994;SDS011;486;48.726;8.964;2022-08-19T14:45:48;15.00;;;13.73;;
994;SDS011;486;48.726;8.964;2022-08-19T14:50:45;15.10;;;14.10;;
994;SDS011;486;48.726;8.964;2022-08-19T14:53:15;14.37;;;13.07;;
994;SDS011;486;48.726;8.964;2022-08-19T14:55:45;13.90;;;13.00;;
994;SDS011;486;48.726;8.964;2022-08-19T14:58:17;15.00;;;14.10;;
994;SDS011;486;48.726;8.964;2022-08-19T15:00:47;13.73;;;12.83;;
994;SDS011;486;48.726;8.964;2022-08-19T15:03:16;14.27;;;13.27;;
994;SDS011;486;48.726;8.964;2022-08-19T15:05:46;13.80;;;13.00;;
994;SDS011;486;48.726;8.964;2022-08-19T15:08:15;15.03;;;13.93;;
994;SDS011;486;48.726;8.964;2022-08-19T15:10:44;14.83;;;13.77;;
994;SDS011;486;48.726;8.964;2022-08-19T15:13:13;13.87;;;12.97;;
994;SDS011;486;48.726;8.964;2022-08-19T15:15:46;13.67;;;12.77;;
994;SDS011;486;48.726;8.964;2022-08-19T15:18:17;12.13;;;11.33;;
994;SDS011;486;48.726;8.964;2022-08-19T15:20:47;28.93;;;26.33;;
994;SDS011;486;48.726;8.964;2022-08-19T15:23:16;18.30;;;12.30;;
994;SDS011;486;48.726;8.964;2022-08-19T15:25:47;13.43;;;12.60;;
994;SDS011;486;48.726;8.964;2022-08-19T15:28:22;13.77;;;12.80;;
994;SDS011;486;48.726;8.964;2022-08-19T15:30:53;13.00;;;12.20;;
994;SDS011;486;48.726;8.964;2022-08-19T15:33:22;13.43;;;12.63;;
994;SDS011;486;48.726;8.964;2022-08-19T15:35:51;13.53;;;12.73;;
994;SDS011;486;48.726;8.964;2022-08-19T15:38:22;13.53;;;12.73;;
994;SDS011;486;48.726;8.964;2022-08-19T15:40:51;14.90;;;13.77;;
994;SDS011;486;48.726;8.964;2022-08-19T15:43:44;12.80;;;12.00;;
994;SDS011;486;48.726;8.964;2022-08-19T15:46:15;13.90;;;13.00;;
994;SDS011;486;48.726;8.964;2022-08-19T15:48:46;12.83;;;12.13;;
994;SDS011;486;48.726;8.964;2022-08-19T15:51:15;12.90;;;12.20;;
994;SDS011;486;48.726;8.964;2022-08-19T15:53:45;14.53;;;13.70;;
994;SDS011;486;48.726;8.964;2022-08-19T15:56:15;12.00;;;11.40;;
994;SDS011;486;48.726;8.964;2022-08-19T15:58:47;13.23;;;12.43;;
994;SDS011;486;48.726;8.964;2022-08-19T16:01:28;13.67;;;12.77;;
994;SDS011;486;48.726;8.964;2022-08-19T16:04:10;13.50;;;12.70;;
994;SDS011;486;48.726;8.964;2022-08-19T16:06:52;13.03;;;12.33;;
994;SDS011;486;48.726;8.964;2022-08-19T16:09:24;13.20;;;12.40;;
994;SDS011;486;48.726;8.964;2022-08-19T16:11:59;13.37;;;12.57;;
994;SDS011;486;48.726;8.964;2022-08-19T16:14:33;14.77;;;13.87;;
994;SDS011;486;48.726;8.964;2022-08-19T16:17:03;13.67;;;12.80;;
994;SDS011;486;48.726;8.964;2022-08-19T16:19:35;12.40;;;11.70;;
994;SDS011;486;48.726;8.964;2022-08-19T16:22:05;14.10;;;13.30;;
994;SDS011;486;48.726;8.964;2022-08-19T16:24:34;13.60;;;12.83;;
994;SDS011;486;48.726;8.964;2022-08-19T16:27:04;14.00;;;13.10;;
994;SDS011;486;48.726;8.964;2022-08-19T16:29:35;12.90;;;12.10;;
994;SDS011;486;48.726;8.964;2022-08-19T16:32:05;12.33;;;11.53;;
994;SDS011;486;48.726;8.964;2022-08-19T16:34:36;13.97;;;12.80;;
994;SDS011;486;48.726;8.964;2022-08-19T16:37:06;13.70;;;12.80;;
994;SDS011;486;48.726;8.964;2022-08-19T16:39:36;13.77;;;12.97;;
994;SDS011;486;48.726;8.964;2022-08-19T16:42:06;13.97;;;13.07;;
994;SDS011;486;48.726;8.964;2022-08-19T16:44:42;18.07;;;16.70;;
994;SDS011;486;48.726;8.964;2022-08-19T16:47:12;15.97;;;14.97;;
994;SDS011;486;48.726;8.964;2022-08-19T16:49:43;20.77;;;19.17;;
994;SDS011;486;48.726;8.964;2022-08-19T16:52:13;13.90;;;12.90;;
994;SDS011;486;48.726;8.964;2022-08-19T16:54:42;15.30;;;14.20;;
994;SDS011;486;48.726;8.964;2022-08-19T16:57:11;12.57;;;11.60;;
994;SDS011;486;48.726;8.964;2022-08-19T16:59:43;14.10;;;13.07;;
994;SDS011;486;48.726;8.964;2022-08-19T17:02:13;12.33;;;11.53;;
994;SDS011;486;48.726;8.964;2022-08-19T17:04:42;15.13;;;14.13;;
994;SDS011;486;48.726;8.964;2022-08-19T17:07:11;12.17;;;11.33;;
994;SDS011;486;48.726;8.964;2022-08-19T17:09:40;19.00;;;17.53;;
994;SDS011;486;48.726;8.964;2022-08-19T17:12:09;11.07;;;10.37;;
994;SDS011;486;48.726;8.964;2022-08-19T17:14:39;14.60;;;13.70;;
994;SDS011;486;48.726;8.964;2022-08-19T17:17:12;11.43;;;10.73;;
994;SDS011;486;48.726;8.964;2022-08-19T17:19:41;11.23;;;10.40;;
994;SDS011;486;48.726;8.964;2022-08-19T17:22:11;11.93;;;11.20;;
994;SDS011;486;48.726;8.964;2022-08-19T17:24:40;12.40;;;11.17;;
994;SDS011;486;48.726;8.964;2022-08-19T17:27:09;11.63;;;10.83;;
994;SDS011;486;48.726;8.964;2022-08-19T17:29:38;12.60;;;11.80;;
994;SDS011;486;48.726;8.964;2022-08-19T17:32:10;12.23;;;11.33;;
994;SDS011;486;48.726;8.964;2022-08-19T17:34:39;12.30;;;11.47;;
994;SDS011;486;48.726;8.964;2022-08-19T17:37:08;12.27;;;11.37;;
994;SDS011;486;48.726;8.964;2022-08-19T17:39:38;11.17;;;10.47;;
994;SDS011;486;48.726;8.964;2022-08-19T17:42:08;10.73;;;10.03;;
994;SDS011;486;48.726;8.964;2022-08-19T17:44:37;10.53;;;9.93;;
994;SDS011;486;48.726;8.964;2022-08-19T17:47:06;17.13;;;15.97;;
994;SDS011;486;48.726;8.964;2022-08-19T17:49:38;11.07;;;10.37;;
994;SDS011;486;48.726;8.964;2022-08-19T17:52:07;10.13;;;9.53;;
994;SDS011;486;48.726;8.964;2022-08-19T17:54:36;10.93;;;10.13;;
994;SDS011;486;48.726;8.964;2022-08-19T17:57:05;9.70;;;9.10;;
994;SDS011;486;48.726;8.964;2022-08-19T17:59:34;9.87;;;9.27;;
994;SDS011;486;48.726;8.964;2022-08-19T18:02:03;9.67;;;9.03;;
994;SDS011;486;48.726;8.964;2022-08-19T18:04:37;10.40;;;9.70;;
994;SDS011;486;48.726;8.964;2022-08-19T18:07:06;9.70;;;8.90;;
994;SDS011;486;48.726;8.964;2022-08-19T18:09:37;9.80;;;9.10;;
994;SDS011;486;48.726;8.964;2022-08-19T18:12:08;9.53;;;8.83;;
994;SDS011;486;48.726;8.964;2022-08-19T18:14:40;9.50;;;8.87;;
994;SDS011;486;48.726;8.964;2022-08-19T18:17:11;9.07;;;8.40;;
994;SDS011;486;48.726;8.964;2022-08-19T18:19:46;10.20;;;9.40;;
994;SDS011;486;48.726;8.964;2022-08-19T18:22:20;10.07;;;9.37;;
994;SDS011;486;48.726;8.964;2022-08-19T18:24:53;10.43;;;9.80;;
994;SDS011;486;48.726;8.964;2022-08-19T18:27:24;9.53;;;8.83;;
994;SDS011;486;48.726;8.964;2022-08-19T18:29:54;9.73;;;9.00;;
994;SDS011;486;48.726;8.964;2022-08-19T18:32:24;10.90;;;10.13;;